createdAt,value
2017-03-20T18:37:44.933Z,20.5
2017-03-20T18:38:00.749Z,20.3
2017-03-20T18:38:16.565Z,19.9
2017-03-20T18:38:32.415Z,19.7
2017-03-20T18:38:48.554Z,19.6
2017-03-20T18:39:04.397Z,19.5
2017-03-20T18:39:20.075Z,19.5
2017-03-20T18:39:35.887Z,19.6
2017-03-20T18:39:51.697Z,19.6
2017-03-20T18:40:07.510Z,19.7
2017-03-20T18:40:23.551Z,19.7
2017-03-20T18:40:39.389Z,19.8
2017-03-20T18:40:55.427Z,19.8
2017-03-20T18:41:11.468Z,19.9
2017-03-20T18:41:27.508Z,20
2017-03-20T18:41:43.319Z,20
2017-03-20T18:41:59.363Z,20
2017-03-20T18:42:15.173Z,20.1
2017-03-20T18:42:30.987Z,20.2
2017-03-20T18:42:46.665Z,20.2
2017-03-20T18:43:02.475Z,20.2
2017-03-20T18:43:18.288Z,20.3
2017-03-20T18:43:34.178Z,20.3
2017-03-20T18:43:50.317Z,20.3
2017-03-20T18:44:06.227Z,20.3
2017-03-20T18:44:22.354Z,20.4
2017-03-20T18:44:38.379Z,20.4
2017-03-20T18:44:54.258Z,20.4
2017-03-20T18:45:10.831Z,20.4
2017-03-20T18:45:26.953Z,20.4
2017-03-20T18:45:42.987Z,20.5
2017-03-20T18:45:58.909Z,20.5
2017-03-20T18:46:14.975Z,20.5
2017-03-20T18:46:30.786Z,20.5
2017-03-20T18:46:46.633Z,20.5
2017-03-20T18:47:02.406Z,20.5
2017-03-20T18:47:18.347Z,20.6
2017-03-20T18:47:34.764Z,20.6
2017-03-20T18:47:50.907Z,20.6
2017-03-20T18:48:06.788Z,20.5
2017-03-20T18:48:22.685Z,20.5
2017-03-20T18:48:38.767Z,20.6
2017-03-20T18:48:55.284Z,20.6
2017-03-20T18:49:11.286Z,20.6
2017-03-20T18:49:27.234Z,20.6
2017-03-20T18:49:43.428Z,20.6
2017-03-20T18:49:59.327Z,20.6
2017-03-20T18:50:15.139Z,20.6
2017-03-20T18:50:30.852Z,20.6
2017-03-20T18:50:46.978Z,20.6
2017-03-20T18:51:03.007Z,20.6
2017-03-20T18:51:19.038Z,20.6
2017-03-20T18:51:35.328Z,20.6
2017-03-20T18:51:51.140Z,20.6
2017-03-20T18:52:06.951Z,20.6
2017-03-20T18:52:22.761Z,20.6
2017-03-20T18:52:38.570Z,20.6
2017-03-20T18:52:54.617Z,20.6
2017-03-20T18:53:10.434Z,20.6
2017-03-20T18:53:26.247Z,20.6
2017-03-20T18:53:42.040Z,20.6
2017-03-20T18:53:58.431Z,20.6
2017-03-20T18:54:14.531Z,20.6
2017-03-20T18:54:30.610Z,20.6
2017-03-20T18:54:46.425Z,20.6
2017-03-20T18:55:02.235Z,20.6
2017-03-20T18:55:18.047Z,20.6
2017-03-20T18:55:33.861Z,20.6
2017-03-20T18:55:49.673Z,20.6
2017-03-20T18:56:05.720Z,20.6
2017-03-20T18:56:21.532Z,20.6
2017-03-20T18:56:37.346Z,20.6
2017-03-20T18:56:53.159Z,20.6
2017-03-20T18:57:09.203Z,20.6
2017-03-20T18:57:25.018Z,20.6
2017-03-20T18:57:40.835Z,20.6
2017-03-20T18:57:56.647Z,20.6
2017-03-20T18:58:12.335Z,20.6
2017-03-20T18:58:28.149Z,20.6
2017-03-20T18:58:44.053Z,20.6
2017-03-20T18:58:59.864Z,20.6
2017-03-20T18:59:15.546Z,20.6
2017-03-20T18:59:31.357Z,20.6
2017-03-20T18:59:47.169Z,20.6
2017-03-20T19:00:02.998Z,20.6
2017-03-20T19:00:18.895Z,20.6
2017-03-20T19:00:34.706Z,20.6
2017-03-20T19:00:50.521Z,20.6
2017-03-20T19:01:06.333Z,20.6
2017-03-20T19:01:22.144Z,20.6
2017-03-20T19:01:37.956Z,20.6
2017-03-20T19:01:54.006Z,20.6
2017-03-20T19:02:09.819Z,20.6
2017-03-20T19:02:25.677Z,20.6
2017-03-20T19:02:41.487Z,20.6
2017-03-20T19:02:57.300Z,20.7
2017-03-20T19:03:13.114Z,20.6
2017-03-20T19:03:28.932Z,20.6
2017-03-20T19:03:44.741Z,20.6
2017-03-20T19:04:00.556Z,20.6
2017-03-20T19:04:16.368Z,20.6
2017-03-20T19:04:32.181Z,20.6
2017-03-20T19:04:48.228Z,20.6
2017-03-20T19:05:04.041Z,20.6
2017-03-20T19:05:19.855Z,20.7
2017-03-20T19:05:35.669Z,20.7
2017-03-20T19:05:51.482Z,20.6
2017-03-20T19:06:07.293Z,20.6
2017-03-20T19:06:23.107Z,20.6
2017-03-20T19:06:39.015Z,20.6
2017-03-20T19:06:55.061Z,20.6
2017-03-20T19:07:10.872Z,20.6
2017-03-20T19:07:26.693Z,20.6
2017-03-20T19:07:42.728Z,20.6
2017-03-20T19:07:58.776Z,20.6
2017-03-20T19:08:14.456Z,20.6
2017-03-20T19:08:30.270Z,20.6
2017-03-20T19:08:46.082Z,20.6
2017-03-20T19:09:01.896Z,20.6
2017-03-20T19:09:17.940Z,20.6
2017-03-20T19:09:33.755Z,20.6
2017-03-20T19:09:49.568Z,20.6
2017-03-20T19:10:05.387Z,20.6
2017-03-20T19:10:21.202Z,20.7
2017-03-20T19:10:37.018Z,20.6
2017-03-20T19:10:52.841Z,20.7
2017-03-20T19:11:08.646Z,20.7
2017-03-20T19:11:24.460Z,20.7
2017-03-20T19:11:40.273Z,20.7
2017-03-20T19:11:56.092Z,20.7
2017-03-20T19:12:11.902Z,20.7
2017-03-20T19:12:27.583Z,20.7
2017-03-20T19:12:43.395Z,20.7
2017-03-20T19:12:59.445Z,20.7
2017-03-20T19:13:15.486Z,20.7
2017-03-20T19:13:31.299Z,20.7
2017-03-20T19:13:47.504Z,20.7
2017-03-20T19:14:03.549Z,20.7
2017-03-20T19:14:19.364Z,20.7
2017-03-20T19:14:35.042Z,20.7
2017-03-20T19:14:50.855Z,20.7
2017-03-20T19:15:06.672Z,20.7
2017-03-20T19:15:22.729Z,20.7
2017-03-20T19:15:38.541Z,20.7
2017-03-20T19:15:54.355Z,20.7
2017-03-20T19:16:10.163Z,20.7
2017-03-20T19:16:25.977Z,20.7
2017-03-20T19:16:41.788Z,20.7
2017-03-20T19:16:57.598Z,20.7
2017-03-20T19:17:13.419Z,20.7
2017-03-20T19:17:29.229Z,20.7
2017-03-20T19:17:45.277Z,20.7
2017-03-20T19:18:01.085Z,20.7
2017-03-20T19:18:16.911Z,20.7
2017-03-20T19:18:32.713Z,20.7
2017-03-20T19:18:48.616Z,20.7
2017-03-20T19:19:04.425Z,20.7
2017-03-20T19:19:20.239Z,20.7
2017-03-20T19:19:36.341Z,20.7
2017-03-20T19:19:52.369Z,20.7
2017-03-20T19:20:08.188Z,20.7
2017-03-20T19:20:24.232Z,20.7
2017-03-20T19:20:40.047Z,20.7
2017-03-20T19:20:56.087Z,20.7
2017-03-20T19:21:12.128Z,20.7
2017-03-20T19:21:27.810Z,20.7
2017-03-20T19:21:43.851Z,20.7
2017-03-20T19:21:59.663Z,20.7
2017-03-20T19:22:15.477Z,20.7
2017-03-20T19:22:31.290Z,20.6
2017-03-20T19:22:47.327Z,20.7
2017-03-20T19:23:03.148Z,20.7
2017-03-20T19:23:19.182Z,20.7
2017-03-20T19:23:34.994Z,20.6
2017-03-20T19:23:51.050Z,20.7
2017-03-20T19:24:06.864Z,20.7
2017-03-20T19:24:22.676Z,20.7
2017-03-20T19:24:38.487Z,20.7
2017-03-20T19:24:54.375Z,20.7
2017-03-20T19:25:10.213Z,20.7
2017-03-20T19:25:26.028Z,20.7
2017-03-20T19:25:41.850Z,20.6
2017-03-20T19:25:57.663Z,20.6
2017-03-20T19:26:13.346Z,20.6
2017-03-20T19:26:29.161Z,20.6
2017-03-20T19:26:45.431Z,20.6
2017-03-20T19:27:01.245Z,20.6
2017-03-20T19:27:17.058Z,20.6
2017-03-20T19:27:32.873Z,20.6
2017-03-20T19:27:48.683Z,20.6
2017-03-20T19:28:04.499Z,20.6
2017-03-20T19:28:20.315Z,20.6
2017-03-20T19:28:36.130Z,20.6
2017-03-20T19:28:51.948Z,20.6
2017-03-20T19:29:07.758Z,20.6
2017-03-20T19:29:23.583Z,20.6
2017-03-20T19:29:39.396Z,20.6
2017-03-20T19:29:55.452Z,20.6
2017-03-20T19:30:11.308Z,20.6
2017-03-20T19:30:27.123Z,20.7
2017-03-20T19:30:42.938Z,20.6
2017-03-20T19:30:58.750Z,20.6
2017-03-20T19:31:14.796Z,20.6
2017-03-20T19:31:30.610Z,20.7
2017-03-20T19:31:46.426Z,20.6
2017-03-20T19:32:02.236Z,20.7
2017-03-20T19:32:18.150Z,20.7
2017-03-20T19:32:33.958Z,20.7
2017-03-20T19:32:49.771Z,20.7
2017-03-20T19:33:05.584Z,20.7
2017-03-20T19:33:21.400Z,20.6
2017-03-20T19:33:37.211Z,20.7
2017-03-20T19:33:53.315Z,20.6
2017-03-20T19:34:09.130Z,20.7
2017-03-20T19:34:24.942Z,20.7
2017-03-20T19:34:40.761Z,20.7
2017-03-20T19:34:56.565Z,20.7
2017-03-20T19:35:12.381Z,20.7
2017-03-20T19:35:28.197Z,20.7
2017-03-20T19:35:44.505Z,20.7
2017-03-20T19:36:00.314Z,20.7
2017-03-20T19:36:15.994Z,20.7
2017-03-20T19:36:32.036Z,20.7
2017-03-20T19:36:47.849Z,20.7
2017-03-20T19:37:03.665Z,20.7
2017-03-20T19:37:19.533Z,20.7
2017-03-20T19:37:35.353Z,20.7
2017-03-20T19:37:51.164Z,20.7
2017-03-20T19:38:06.981Z,20.7
2017-03-20T19:38:22.797Z,20.7
2017-03-20T19:38:38.668Z,20.7
2017-03-20T19:38:54.798Z,20.7
2017-03-20T19:39:10.614Z,20.7
2017-03-20T19:39:26.660Z,20.7
2017-03-20T19:39:42.478Z,20.7
2017-03-20T19:39:58.158Z,20.7
2017-03-20T19:40:14.485Z,20.7
2017-03-20T19:40:30.940Z,20.7
2017-03-20T19:40:46.784Z,20.6
2017-03-20T19:41:02.833Z,20.7
2017-03-20T19:41:18.645Z,20.7
2017-03-20T19:41:34.483Z,20.7
2017-03-20T19:41:50.525Z,20.7
2017-03-20T19:42:06.338Z,20.7
2017-03-20T19:42:22.151Z,20.7
2017-03-20T19:42:38.197Z,20.7
2017-03-20T19:42:54.013Z,20.7
2017-03-20T19:43:10.155Z,20.7
2017-03-20T19:43:25.968Z,20.7
2017-03-20T19:43:42.242Z,20.7
2017-03-20T19:43:58.056Z,20.7
2017-03-20T19:44:14.331Z,20.6
2017-03-20T19:44:30.146Z,20.6
2017-03-20T19:44:45.960Z,20.6
2017-03-20T19:45:02.033Z,20.6
2017-03-20T19:45:17.889Z,20.6
2017-03-20T19:45:33.931Z,20.6
2017-03-20T19:45:49.980Z,20.6
2017-03-20T19:46:06.028Z,20.6
2017-03-20T19:46:22.070Z,20.6
2017-03-20T19:46:37.892Z,20.6
2017-03-20T19:46:53.931Z,20.6
2017-03-20T19:47:09.746Z,20.6
2017-03-20T19:47:25.426Z,20.6
2017-03-20T19:47:41.242Z,20.6
2017-03-20T19:47:57.522Z,20.6
2017-03-20T19:48:13.338Z,20.6
2017-03-20T19:48:29.155Z,20.6
2017-03-20T19:48:44.972Z,20.6
2017-03-20T19:49:00.653Z,20.6
2017-03-20T19:49:16.700Z,20.6
2017-03-20T19:49:32.617Z,20.6
2017-03-20T19:49:48.435Z,20.6
2017-03-20T19:50:04.247Z,20.6
2017-03-20T19:50:20.289Z,20.6
2017-03-20T19:50:36.100Z,20.6
2017-03-20T19:50:51.917Z,20.6
2017-03-20T19:51:08.188Z,20.6
2017-03-20T19:51:24.002Z,20.6
2017-03-20T19:51:40.053Z,20.6
2017-03-20T19:51:56.326Z,20.6
2017-03-20T19:52:12.597Z,20.6
2017-03-20T19:52:28.876Z,20.6
2017-03-20T19:52:45.147Z,20.6
2017-03-20T19:53:01.202Z,20.6
2017-03-20T19:53:17.245Z,20.6
2017-03-20T19:53:33.058Z,20.6
2017-03-20T19:53:48.881Z,20.6
2017-03-20T19:54:05.035Z,20.6
2017-03-20T19:54:20.867Z,20.6
2017-03-20T19:54:36.911Z,20.6
2017-03-20T19:54:52.749Z,20.6
2017-03-20T19:55:08.805Z,20.6
2017-03-20T19:55:24.849Z,20.6
2017-03-20T19:55:40.661Z,20.6
2017-03-20T19:55:56.475Z,20.6
2017-03-20T19:56:12.287Z,20.6
2017-03-20T19:56:28.104Z,20.6
2017-03-20T19:56:43.924Z,20.6
2017-03-20T19:56:59.740Z,20.6
2017-03-20T19:57:15.550Z,20.6
2017-03-20T19:57:31.589Z,20.6
2017-03-20T19:57:47.400Z,20.6
2017-03-20T19:58:03.215Z,20.6
2017-03-20T19:58:19.028Z,20.6
2017-03-20T19:58:34.842Z,20.6
2017-03-20T19:58:50.890Z,20.6
2017-03-20T19:59:06.794Z,20.6
2017-03-20T19:59:22.474Z,20.6
2017-03-20T19:59:38.290Z,20.6
2017-03-20T19:59:54.330Z,20.6
2017-03-20T20:00:10.144Z,20.6
2017-03-20T20:00:26.193Z,20.6
2017-03-20T20:00:42.004Z,20.6
2017-03-20T20:00:57.816Z,20.6
2017-03-20T20:01:13.630Z,20.6
2017-03-20T20:01:29.442Z,20.6
2017-03-20T20:01:45.488Z,20.6
2017-03-20T20:02:01.302Z,20.6
2017-03-20T20:02:17.349Z,20.6
2017-03-20T20:02:33.165Z,20.6
2017-03-20T20:02:49.439Z,20.6
2017-03-20T20:03:05.118Z,20.6
2017-03-20T20:03:20.806Z,20.6
2017-03-20T20:03:36.620Z,20.5
2017-03-20T20:03:52.299Z,20.6
2017-03-20T20:04:08.360Z,20.5
2017-03-20T20:04:24.173Z,20.5
2017-03-20T20:04:39.987Z,20.5
2017-03-20T20:04:55.803Z,20.5
2017-03-20T20:05:11.847Z,20.5
2017-03-20T20:05:27.888Z,20.5
2017-03-20T20:05:43.726Z,20.5
2017-03-20T20:05:59.520Z,20.5
2017-03-20T20:06:15.332Z,20.5
2017-03-20T20:06:31.144Z,20.5
2017-03-20T20:06:46.962Z,20.5
2017-03-20T20:07:02.784Z,20.5
2017-03-20T20:07:19.056Z,20.5
2017-03-20T20:07:34.868Z,20.5
2017-03-20T20:07:50.684Z,20.5
2017-03-20T20:08:06.370Z,20.5
2017-03-20T20:08:22.191Z,20.5
2017-03-20T20:08:38.008Z,20.5
2017-03-20T20:08:53.818Z,20.5
2017-03-20T20:09:09.630Z,20.5
2017-03-20T20:09:25.674Z,20.6
2017-03-20T20:09:41.490Z,20.5
2017-03-20T20:09:57.532Z,20.6
2017-03-20T20:10:13.344Z,20.6
2017-03-20T20:10:29.160Z,20.5
2017-03-20T20:10:44.979Z,20.5
2017-03-20T20:11:00.784Z,20.5
2017-03-20T20:11:16.597Z,20.5
2017-03-20T20:11:32.410Z,20.6
2017-03-20T20:11:48.223Z,20.5
2017-03-20T20:12:04.264Z,20.6
2017-03-20T20:12:20.314Z,20.6
2017-03-20T20:12:36.126Z,20.6
2017-03-20T20:12:51.806Z,20.6
2017-03-20T20:13:07.620Z,20.6
2017-03-20T20:13:23.666Z,20.5
2017-03-20T20:13:39.479Z,20.6
2017-03-20T20:13:55.294Z,20.6
2017-03-20T20:14:11.628Z,20.6
2017-03-20T20:14:27.439Z,20.6
2017-03-20T20:14:43.480Z,20.6
2017-03-20T20:14:59.160Z,20.6
2017-03-20T20:15:15.204Z,20.6
2017-03-20T20:15:31.049Z,20.6
2017-03-20T20:15:47.062Z,20.6
2017-03-20T20:16:02.875Z,20.6
2017-03-20T20:16:18.916Z,20.6
2017-03-20T20:16:34.733Z,20.6
2017-03-20T20:16:50.545Z,20.6
2017-03-20T20:17:06.357Z,20.6
2017-03-20T20:17:22.172Z,20.6
2017-03-20T20:17:37.987Z,20.6
2017-03-20T20:17:53.796Z,20.6
2017-03-20T20:18:09.608Z,20.6
2017-03-20T20:18:25.419Z,20.6
2017-03-20T20:18:41.230Z,20.6
2017-03-20T20:18:57.275Z,20.6
2017-03-20T20:19:13.459Z,20.6
2017-03-20T20:19:29.271Z,20.6
2017-03-20T20:19:45.544Z,20.6
2017-03-20T20:20:01.454Z,20.6
2017-03-20T20:20:17.265Z,20.6
2017-03-20T20:20:33.078Z,20.6
2017-03-20T20:20:49.118Z,20.6
2017-03-20T20:21:04.928Z,20.6
2017-03-20T20:21:20.972Z,20.6
2017-03-20T20:21:36.783Z,20.5
2017-03-20T20:21:52.597Z,20.6
2017-03-20T20:22:08.638Z,20.6
2017-03-20T20:22:24.682Z,20.5
2017-03-20T20:22:40.497Z,20.6
2017-03-20T20:22:56.303Z,20.5
2017-03-20T20:23:12.117Z,20.5
2017-03-20T20:23:27.932Z,20.5
2017-03-20T20:23:43.743Z,20.5
2017-03-20T20:23:59.555Z,20.5
2017-03-20T20:24:15.616Z,20.5
2017-03-20T20:24:31.428Z,20.5
2017-03-20T20:24:47.469Z,20.5
2017-03-20T20:25:03.154Z,20.6
2017-03-20T20:25:19.417Z,20.5
2017-03-20T20:25:35.226Z,20.5
2017-03-20T20:25:51.039Z,20.5
2017-03-20T20:26:06.850Z,20.5
2017-03-20T20:26:22.665Z,20.5
2017-03-20T20:26:38.705Z,20.5
2017-03-20T20:26:54.386Z,20.5
2017-03-20T20:27:10.197Z,20.5
2017-03-20T20:27:26.012Z,20.5
2017-03-20T20:27:41.826Z,20.5
2017-03-20T20:27:57.641Z,20.5
2017-03-20T20:28:13.328Z,20.5
2017-03-20T20:28:29.138Z,20.5
2017-03-20T20:28:44.817Z,20.5
2017-03-20T20:29:00.628Z,20.5
2017-03-20T20:29:16.444Z,20.5
2017-03-20T20:29:32.258Z,20.5
2017-03-20T20:29:48.303Z,20.5
2017-03-20T20:30:04.347Z,20.5
2017-03-20T20:30:20.159Z,20.5
2017-03-20T20:30:35.973Z,20.5
2017-03-20T20:30:51.782Z,20.5
2017-03-20T20:31:07.598Z,20.5
2017-03-20T20:31:23.409Z,20.5
2017-03-20T20:31:39.224Z,20.5
2017-03-20T20:31:55.036Z,20.5
2017-03-20T20:32:10.848Z,20.5
2017-03-20T20:32:26.664Z,20.5
2017-03-20T20:32:42.478Z,20.5
2017-03-20T20:32:58.294Z,20.5
2017-03-20T20:33:14.341Z,20.5
2017-03-20T20:33:30.158Z,20.5
2017-03-20T20:33:46.005Z,20.5
2017-03-20T20:34:01.789Z,20.5
2017-03-20T20:34:17.894Z,20.5
2017-03-20T20:34:33.706Z,20.5
2017-03-20T20:34:49.518Z,20.4
2017-03-20T20:35:05.327Z,20.5
2017-03-20T20:35:21.144Z,20.4
2017-03-20T20:35:36.958Z,20.4
2017-03-20T20:35:52.773Z,20.4
2017-03-20T20:36:08.582Z,20.4
2017-03-20T20:36:24.396Z,20.4
2017-03-20T20:36:40.206Z,20.5
2017-03-20T20:36:56.015Z,20.4
2017-03-20T20:37:11.829Z,20.4
2017-03-20T20:37:27.642Z,20.4
2017-03-20T20:37:43.456Z,20.4
2017-03-20T20:37:59.268Z,20.4
2017-03-20T20:38:15.082Z,20.4
2017-03-20T20:38:30.898Z,20.4
2017-03-20T20:38:46.712Z,20.4
2017-03-20T20:39:02.528Z,20.4
2017-03-20T20:39:18.434Z,20.4
2017-03-20T20:39:34.246Z,20.4
2017-03-20T20:39:50.291Z,20.4
2017-03-20T20:40:06.101Z,20.4
2017-03-20T20:40:21.916Z,20.4
2017-03-20T20:40:37.728Z,20.4
2017-03-20T20:40:53.544Z,20.4
2017-03-20T20:41:09.356Z,20.4
2017-03-20T20:41:25.169Z,20.4
2017-03-20T20:41:40.979Z,20.4
2017-03-20T20:41:56.792Z,20.4
2017-03-20T20:42:12.830Z,20.4
2017-03-20T20:42:28.643Z,20.4
2017-03-20T20:42:44.456Z,20.4
2017-03-20T20:43:00.271Z,20.4
2017-03-20T20:43:16.316Z,20.4
2017-03-20T20:43:32.130Z,20.4
2017-03-20T20:43:47.940Z,20.4
2017-03-20T20:44:03.757Z,20.4
2017-03-20T20:44:19.765Z,20.4
2017-03-20T20:44:35.802Z,20.4
2017-03-20T20:44:51.617Z,20.4
2017-03-20T20:45:07.436Z,20.4
2017-03-20T20:45:23.253Z,20.4
2017-03-20T20:45:39.066Z,20.4
2017-03-20T20:45:54.876Z,20.4
2017-03-20T20:46:10.920Z,20.4
2017-03-20T20:46:26.732Z,20.4
2017-03-20T20:46:42.543Z,20.4
2017-03-20T20:46:58.355Z,20.4
2017-03-20T20:47:14.169Z,20.4
2017-03-20T20:47:29.983Z,20.4
2017-03-20T20:47:45.796Z,20.4
2017-03-20T20:48:01.607Z,20.4
2017-03-20T20:48:17.426Z,20.4
2017-03-20T20:48:33.241Z,20.4
2017-03-20T20:48:49.054Z,20.5
2017-03-20T20:49:04.871Z,20.4
2017-03-20T20:49:20.690Z,20.4
2017-03-20T20:49:36.495Z,20.5
2017-03-20T20:49:52.553Z,20.5
2017-03-20T20:50:08.592Z,20.4
2017-03-20T20:50:24.405Z,20.4
2017-03-20T20:50:40.454Z,20.5
2017-03-20T20:50:56.264Z,20.4
2017-03-20T20:51:11.945Z,20.5
2017-03-20T20:51:27.990Z,20.5
2017-03-20T20:51:44.051Z,20.5
2017-03-20T20:51:59.864Z,20.5
2017-03-20T20:52:15.541Z,20.4
2017-03-20T20:52:31.352Z,20.4
2017-03-20T20:52:47.164Z,20.5
2017-03-20T20:53:02.982Z,20.5
2017-03-20T20:53:19.020Z,20.4
2017-03-20T20:53:34.832Z,20.5
2017-03-20T20:53:51.108Z,20.5
2017-03-20T20:54:06.916Z,20.4
2017-03-20T20:54:23.121Z,20.5
2017-03-20T20:54:39.174Z,20.5
2017-03-20T20:54:54.998Z,20.5
2017-03-20T20:55:11.038Z,20.5
2017-03-20T20:55:26.852Z,20.4
2017-03-20T20:55:42.680Z,20.4
2017-03-20T20:55:58.480Z,20.5
2017-03-20T20:56:14.290Z,20.5
2017-03-20T20:56:30.105Z,20.5
2017-03-20T20:56:45.920Z,20.4
2017-03-20T20:57:01.733Z,20.5
2017-03-20T20:57:17.547Z,20.5
2017-03-20T20:57:33.361Z,20.4
2017-03-20T20:57:49.173Z,20.5
2017-03-20T20:58:05.002Z,20.5
2017-03-20T20:58:21.063Z,20.4
2017-03-20T20:58:36.872Z,20.4
2017-03-20T20:58:52.961Z,20.4
2017-03-20T20:59:08.773Z,20.4
2017-03-20T20:59:24.677Z,20.4
2017-03-20T20:59:40.753Z,20.4
2017-03-20T20:59:56.819Z,20.4
2017-03-20T21:00:12.633Z,20.4
2017-03-20T21:00:28.446Z,20.4
2017-03-20T21:00:44.255Z,20.4
2017-03-20T21:01:00.069Z,20.4
2017-03-20T21:01:16.121Z,20.4
2017-03-20T21:01:31.933Z,20.4
2017-03-20T21:01:47.745Z,20.4
2017-03-20T21:02:03.558Z,20.4
2017-03-20T21:02:19.372Z,20.4
2017-03-20T21:02:35.186Z,20.4
2017-03-20T21:02:51.225Z,20.4
2017-03-20T21:03:07.270Z,20.4
2017-03-20T21:03:23.082Z,20.4
2017-03-20T21:03:38.925Z,20.4
2017-03-20T21:03:54.730Z,20.4
2017-03-20T21:04:10.552Z,20.4
2017-03-20T21:04:26.606Z,20.4
2017-03-20T21:04:42.418Z,20.4
2017-03-20T21:04:58.228Z,20.4
2017-03-20T21:05:14.041Z,20.4
2017-03-20T21:05:29.851Z,20.4
2017-03-20T21:05:45.665Z,20.4
2017-03-20T21:06:01.705Z,20.4
2017-03-20T21:06:17.519Z,20.4
2017-03-20T21:06:33.335Z,20.4
2017-03-20T21:06:49.378Z,20.4
2017-03-20T21:07:05.193Z,20.4
2017-03-20T21:07:21.233Z,20.4
2017-03-20T21:07:37.045Z,20.4
2017-03-20T21:07:52.857Z,20.4
2017-03-20T21:08:08.676Z,20.4
2017-03-20T21:08:24.486Z,20.4
2017-03-20T21:08:40.302Z,20.4
2017-03-20T21:08:56.122Z,20.4
2017-03-20T21:09:11.934Z,20.4
2017-03-20T21:09:27.751Z,20.4
2017-03-20T21:09:43.561Z,20.4
2017-03-20T21:09:59.374Z,20.4
2017-03-20T21:10:15.420Z,20.4
2017-03-20T21:10:31.231Z,20.4
2017-03-20T21:10:47.043Z,20.4
2017-03-20T21:11:02.858Z,20.4
2017-03-20T21:11:18.537Z,20.4
2017-03-20T21:11:34.353Z,20.4
2017-03-20T21:11:50.165Z,20.4
2017-03-20T21:12:06.210Z,20.4
2017-03-20T21:12:22.026Z,20.4
2017-03-20T21:12:38.066Z,20.4
2017-03-20T21:12:54.105Z,20.4
2017-03-20T21:13:09.921Z,20.4
2017-03-20T21:13:25.733Z,20.4
2017-03-20T21:13:41.543Z,20.4
2017-03-20T21:13:57.356Z,20.4
2017-03-20T21:14:13.169Z,20.4
2017-03-20T21:14:29.383Z,20.4
2017-03-20T21:14:45.198Z,20.4
2017-03-20T21:15:01.014Z,20.4
2017-03-20T21:15:16.830Z,20.4
2017-03-20T21:15:32.641Z,20.4
2017-03-20T21:15:48.454Z,20.4
2017-03-20T21:16:04.273Z,20.4
2017-03-20T21:16:19.955Z,20.4
2017-03-20T21:16:35.767Z,20.4
2017-03-20T21:16:51.580Z,20.4
2017-03-20T21:17:07.398Z,20.4
2017-03-20T21:17:23.210Z,20.4
2017-03-20T21:17:39.026Z,20.3
2017-03-20T21:17:55.070Z,20.4
2017-03-20T21:18:10.886Z,20.4
2017-03-20T21:18:26.701Z,20.4
2017-03-20T21:18:42.516Z,20.4
2017-03-20T21:18:58.327Z,20.4
2017-03-20T21:19:14.141Z,20.4
2017-03-20T21:19:30.388Z,20.4
2017-03-20T21:19:46.195Z,20.4
2017-03-20T21:20:02.010Z,20.4
2017-03-20T21:20:17.824Z,20.4
2017-03-20T21:20:33.634Z,20.4
2017-03-20T21:20:49.448Z,20.4
2017-03-20T21:21:05.264Z,20.4
2017-03-20T21:21:21.077Z,20.4
2017-03-20T21:21:36.900Z,20.4
2017-03-20T21:21:52.945Z,20.4
2017-03-20T21:22:08.982Z,20.4
2017-03-20T21:22:25.025Z,20.4
2017-03-20T21:22:40.835Z,20.4
2017-03-20T21:22:56.655Z,20.4
2017-03-20T21:23:12.928Z,20.4
2017-03-20T21:23:28.738Z,20.4
2017-03-20T21:23:44.552Z,20.4
2017-03-20T21:24:00.592Z,20.4
2017-03-20T21:24:16.406Z,20.4
2017-03-20T21:24:32.413Z,20.4
2017-03-20T21:24:48.458Z,20.4
2017-03-20T21:25:04.501Z,20.4
2017-03-20T21:25:20.312Z,20.4
2017-03-20T21:25:36.130Z,20.4
2017-03-20T21:25:51.946Z,20.4
2017-03-20T21:26:07.754Z,20.4
2017-03-20T21:26:23.434Z,20.4
2017-03-20T21:26:39.247Z,20.4
2017-03-20T21:26:55.056Z,20.4
2017-03-20T21:27:10.869Z,20.4
2017-03-20T21:27:26.914Z,20.4
2017-03-20T21:27:42.725Z,20.4
2017-03-20T21:27:58.783Z,20.4
2017-03-20T21:28:14.596Z,20.4
2017-03-20T21:28:30.410Z,20.4
2017-03-20T21:28:46.225Z,20.4
2017-03-20T21:29:02.033Z,20.4
2017-03-20T21:29:17.868Z,20.4
2017-03-20T21:29:33.677Z,20.4
2017-03-20T21:29:49.353Z,20.4
2017-03-20T21:30:05.164Z,20.4
2017-03-20T21:30:20.979Z,20.4
2017-03-20T21:30:36.792Z,20.4
2017-03-20T21:30:52.604Z,20.4
2017-03-20T21:31:08.415Z,20.4
2017-03-20T21:31:24.225Z,20.4
2017-03-20T21:31:40.035Z,20.4
2017-03-20T21:31:55.849Z,20.4
2017-03-20T21:32:11.658Z,20.4
2017-03-20T21:32:27.697Z,20.4
2017-03-20T21:32:43.512Z,20.4
2017-03-20T21:32:59.326Z,20.4
2017-03-20T21:33:15.371Z,20.4
2017-03-20T21:33:31.188Z,20.4
2017-03-20T21:33:46.999Z,20.4
2017-03-20T21:34:02.811Z,20.4
2017-03-20T21:34:18.851Z,20.4
2017-03-20T21:34:35.381Z,20.4
2017-03-20T21:34:51.193Z,20.4
2017-03-20T21:35:07.235Z,20.4
2017-03-20T21:35:23.046Z,20.4
2017-03-20T21:35:39.086Z,20.4
2017-03-20T21:35:54.901Z,20.4
2017-03-20T21:36:10.713Z,20.4
2017-03-20T21:36:26.526Z,20.4
2017-03-20T21:36:42.359Z,20.4
2017-03-20T21:36:58.170Z,20.4
2017-03-20T21:37:13.988Z,20.4
2017-03-20T21:37:29.801Z,20.4
2017-03-20T21:37:45.613Z,20.4
2017-03-20T21:38:01.656Z,20.4
2017-03-20T21:38:17.467Z,20.4
2017-03-20T21:38:33.279Z,20.4
2017-03-20T21:38:49.093Z,20.4
2017-03-20T21:39:04.907Z,20.4
2017-03-20T21:39:20.719Z,20.4
2017-03-20T21:39:36.623Z,20.4
2017-03-20T21:39:52.301Z,20.4
2017-03-20T21:40:08.114Z,20.4
2017-03-20T21:40:23.923Z,20.4
2017-03-20T21:40:39.736Z,20.4
2017-03-20T21:40:55.558Z,20.4
2017-03-20T21:41:11.373Z,20.4
2017-03-20T21:41:27.186Z,20.4
2017-03-20T21:41:43.229Z,20.4
2017-03-20T21:41:59.039Z,20.4
2017-03-20T21:42:15.085Z,20.4
2017-03-20T21:42:30.897Z,20.4
2017-03-20T21:42:46.710Z,20.4
2017-03-20T21:43:02.522Z,20.4
2017-03-20T21:43:18.206Z,20.4
2017-03-20T21:43:34.029Z,20.4
2017-03-20T21:43:49.843Z,20.4
2017-03-20T21:44:05.682Z,20.4
2017-03-20T21:44:21.501Z,20.4
2017-03-20T21:44:37.767Z,20.4
2017-03-20T21:44:53.610Z,20.4
2017-03-20T21:45:09.425Z,20.4
2017-03-20T21:45:25.698Z,20.4
2017-03-20T21:45:41.378Z,20.4
2017-03-20T21:45:57.206Z,20.4
2017-03-20T21:46:13.017Z,20.4
2017-03-20T21:46:28.824Z,20.4
2017-03-20T21:46:44.642Z,20.4
2017-03-20T21:47:00.453Z,20.4
2017-03-20T21:47:16.265Z,20.4
2017-03-20T21:47:32.077Z,20.4
2017-03-20T21:47:47.889Z,20.4
2017-03-20T21:48:03.571Z,20.3
2017-03-20T21:48:19.613Z,20.4
2017-03-20T21:48:35.658Z,20.4
2017-03-20T21:48:51.473Z,20.4
2017-03-20T21:49:07.521Z,20.3
2017-03-20T21:49:23.333Z,20.4
2017-03-20T21:49:39.286Z,20.3
2017-03-20T21:49:55.101Z,20.3
2017-03-20T21:50:10.915Z,20.3
2017-03-20T21:50:27.190Z,20.3
2017-03-20T21:50:42.875Z,20.3
2017-03-20T21:50:58.695Z,20.3
2017-03-20T21:51:14.972Z,20.3
2017-03-20T21:51:31.013Z,20.3
2017-03-20T21:51:46.825Z,20.3
2017-03-20T21:52:02.641Z,20.3
2017-03-20T21:52:18.450Z,20.3
2017-03-20T21:52:34.263Z,20.3
2017-03-20T21:52:50.083Z,20.3
2017-03-20T21:53:05.901Z,20.3
2017-03-20T21:53:21.579Z,20.3
2017-03-20T21:53:37.393Z,20.3
2017-03-20T21:53:53.206Z,20.3
2017-03-20T21:54:09.020Z,20.3
2017-03-20T21:54:24.830Z,20.3
2017-03-20T21:54:40.739Z,20.3
2017-03-20T21:54:56.551Z,20.3
2017-03-20T21:55:12.364Z,20.3
2017-03-20T21:55:28.176Z,20.3
2017-03-20T21:55:43.993Z,20.3
2017-03-20T21:55:59.838Z,20.3
2017-03-20T21:56:15.650Z,20.3
2017-03-20T21:56:31.464Z,20.3
2017-03-20T21:56:47.500Z,20.3
2017-03-20T21:57:03.315Z,20.3
2017-03-20T21:57:19.365Z,20.3
2017-03-20T21:57:35.178Z,20.3
2017-03-20T21:57:50.989Z,20.3
2017-03-20T21:58:06.804Z,20.3
2017-03-20T21:58:22.842Z,20.3
2017-03-20T21:58:38.663Z,20.3
2017-03-20T21:58:54.476Z,20.4
2017-03-20T21:59:10.751Z,20.4
2017-03-20T21:59:26.789Z,20.4
2017-03-20T21:59:42.895Z,20.4
2017-03-20T21:59:58.941Z,20.4
2017-03-20T22:00:14.756Z,20.4
2017-03-20T22:00:30.800Z,20.4
2017-03-20T22:00:46.844Z,20.4
2017-03-20T22:01:02.884Z,20.4
2017-03-20T22:01:18.697Z,20.4
2017-03-20T22:01:34.743Z,20.4
2017-03-20T22:01:50.558Z,20.4
2017-03-20T22:02:06.239Z,20.4
2017-03-20T22:02:22.282Z,20.4
2017-03-20T22:02:38.097Z,20.4
2017-03-20T22:02:53.779Z,20.4
2017-03-20T22:03:09.461Z,20.4
2017-03-20T22:03:25.505Z,20.4
2017-03-20T22:03:41.556Z,20.4
2017-03-20T22:03:57.831Z,20.4
2017-03-20T22:04:13.870Z,20.4
2017-03-20T22:04:29.688Z,20.4
2017-03-20T22:04:45.730Z,20.4
2017-03-20T22:05:01.773Z,20.4
2017-03-20T22:05:17.585Z,20.4
2017-03-20T22:05:33.634Z,20.4
2017-03-20T22:05:49.442Z,20.4
2017-03-20T22:06:05.254Z,20.4
2017-03-20T22:06:21.299Z,20.4
2017-03-20T22:06:37.110Z,20.4
2017-03-20T22:06:52.927Z,20.4
2017-03-20T22:07:08.734Z,20.4
2017-03-20T22:07:24.549Z,20.4
2017-03-20T22:07:40.819Z,20.4
2017-03-20T22:07:56.631Z,20.4
2017-03-20T22:08:12.443Z,20.4
2017-03-20T22:08:28.484Z,20.4
2017-03-20T22:08:44.297Z,20.4
2017-03-20T22:09:00.346Z,20.4